Terminal Aerodrome Forecast
Issued by NWS Topeka, KS

Home | Current Version | Previous Version | Graphics & Text | Print | Product List | Glossary On
Versions: 1 2 3 4 5 6 7 8 9 10 11 12 13 14 15 16 17 18 19 20 21 22 23 24 25 26 27
000
FTUS43 KTOP 292100 AAA
TAFTOP
TAF AMD
KTOP 292136Z 2922/3018 19014G20KT P6SM VCTS SCT100CB
     FM292200 25006KT P6SM BKN100
     FM300700 31002KT P6SM SCT250=

USA.gov is the U.S. government's official web portal to all federal, state and local government web resources and services.